Terminal Aerodrome Forecast
Issued by NWS

Home | Current Version | Previous Version | Text Only | Print | Product List | Glossary Off
Versions: 1 2 3 4 5 6 7 8 9 10 11 12 13 14 15 16 17 18 19 20 21 22 23 24 25 26 27 28 29 30 31 32

000
FTUS43 KBIS 280500
TAFMOT
TAF
KMOT 280520Z 2806/2906 07005KT 6SM BR OVC025
     FM281300 13009KT 2SM BR BKN020
     FM281700 17013G22KT P6SM BKN150=

USA.gov is the U.S. government's official web portal to all federal, state and local government web resources and services.